Time;durP1;ratioP1;P1;durP2;ratioP2;P2;SDS_P1;SDS_P2;PMS_P1;PMS_P2;Temp;Humidity;BMP_temperature;BMP_pressure;BME280_temperature;BME280_humidity;BME280_pressure;Samples;Min_cycle;Max_cycle;Signal;HPM_P1;HPM_P2
2023/01/17 00:01:52;;;;;;;4.32;1.20;;;;;;;;;;4933708;28;93463;-68
2023/01/17 00:09:57;;;;;;;10.82;1.17;;;;;;;;;;4934648;28;93415;-69
2023/01/17 00:12:24;;;;;;;5.38;1.00;;;;;;;;;;4934967;28;92384;-69
2023/01/17 00:14:52;;;;;;;8.30;1.13;;;;;;;;;;4937281;28;93156;-68
2023/01/17 00:17:19;;;;;;;10.98;1.63;;;;;;;;;;4933962;28;92473;-68
2023/01/17 01:34:44;;;;;;;2.45;0.38;;;;;;;;;;4952875;28;92963;-68
2023/01/17 01:37:10;;;;;;;4.43;0.43;;;;;;;;;;4949790;28;94112;-68
2023/01/17 01:39:36;;;;;;;2.22;0.47;;;;;;;;;;4933681;28;93299;-68
2023/01/17 01:42:13;;;;;;;3.47;0.30;;;;;;;;;;4948999;28;96299;-68
2023/01/17 01:44:44;;;;;;;2.70;0.43;;;;;;;;;;4935290;28;93123;-68
2023/01/17 01:47:11;;;;;;;1.25;0.28;;;;;;;;;;4947274;28;93131;-68
2023/01/17 01:49:38;;;;;;;0.20;0.20;;;;;;;;;;4935801;28;94576;-68
2023/01/17 01:52:05;;;;;;;5.70;0.85;;;;;;;;;;4932766;28;93152;-68
2023/01/17 01:54:36;;;;;;;6.45;0.68;;;;;;;;;;4955938;28;93491;-68
2023/01/17 01:57:05;;;;;;;1.95;0.50;;;;;;;;;;4936712;28;92527;-68
2023/01/17 01:59:32;;;;;;;1.42;0.40;;;;;;;;;;4936722;28;93747;-68
2023/01/17 02:01:58;;;;;;;1.63;0.32;;;;;;;;;;4936360;28;93394;-68
2023/01/17 02:04:26;;;;;;;3.00;0.45;;;;;;;;;;4936220;28;92497;-69
2023/01/17 02:06:57;;;;;;;3.65;0.50;;;;;;;;;;4934774;28;94799;-69
2023/01/17 02:09:23;;;;;;;2.78;0.30;;;;;;;;;;4937695;28;93464;-69
2023/01/17 02:11:50;;;;;;;0.93;0.35;;;;;;;;;;4936007;28;93188;-69
2023/01/17 02:14:17;;;;;;;1.23;0.40;;;;;;;;;;4934434;28;93914;-68
2023/01/17 02:16:56;;;;;;;1.58;0.30;;;;;;;;;;4935384;28;92399;-68
2023/01/17 02:19:41;;;;;;;1.90;0.50;;;;;;;;;;4939824;28;93361;-69
2023/01/17 02:22:07;;;;;;;0.32;0.20;;;;;;;;;;4946964;28;93934;-68
2023/01/17 02:24:52;;;;;;;1.33;0.40;;;;;;;;;;4942306;28;92998;-68
2023/01/17 02:27:34;;;;;;;7.22;0.70;;;;;;;;;;4936214;28;93934;-69
2023/01/17 02:30:19;;;;;;;6.28;1.17;;;;;;;;;;4937319;28;93808;-69
2023/01/17 02:32:45;;;;;;;5.03;0.82;;;;;;;;;;4946900;28;94871;-69
2023/01/17 02:35:16;;;;;;;5.07;0.95;;;;;;;;;;4952404;28;93682;-69
2023/01/17 02:37:54;;;;;;;5.35;0.90;;;;;;;;;;4954566;28;92418;-69
2023/01/17 02:40:46;;;;;;;10.38;1.17;;;;;;;;;;4949006;28;93298;-68
2023/01/17 02:43:14;;;;;;;2.63;0.65;;;;;;;;;;4927901;28;93471;-69
2023/01/17 02:45:40;;;;;;;4.85;1.13;;;;;;;;;;4948320;28;93117;-69
2023/01/17 02:48:08;;;;;;;5.63;1.00;;;;;;;;;;4947172;28;93119;-69
2023/01/17 02:50:46;;;;;;;3.88;0.80;;;;;;;;;;4928036;28;92746;-70
2023/01/17 02:53:24;;;;;;;7.72;1.50;;;;;;;;;;4935148;28;92692;-69
2023/01/17 02:56:16;;;;;;;8.73;0.95;;;;;;;;;;4938572;28;93239;-70
2023/01/17 02:59:03;;;;;;;4.63;0.68;;;;;;;;;;4934089;28;94887;-70
2023/01/17 03:01:35;;;;;;;7.00;1.00;;;;;;;;;;4935368;28;95649;-69
2023/01/17 03:04:01;;;;;;;6.03;0.98;;;;;;;;;;4934808;28;93683;-69
2023/01/17 03:06:32;;;;;;;3.22;0.95;;;;;;;;;;4931357;28;92506;-70
2023/01/17 03:08:59;;;;;;;5.20;0.98;;;;;;;;;;4916418;28;93329;-69
2023/01/17 03:11:26;;;;;;;7.10;1.15;;;;;;;;;;4916445;28;95503;-70
2023/01/17 03:13:58;;;;;;;10.18;1.42;;;;;;;;;;4919079;28;92593;-69
2023/01/17 03:16:26;;;;;;;12.90;0.98;;;;;;;;;;4938528;28;96092;-69
2023/01/17 03:18:55;;;;;;;4.75;0.95;;;;;;;;;;4934233;28;92499;-68
2023/01/17 03:21:22;;;;;;;5.55;0.85;;;;;;;;;;4940504;28;93228;-68
2023/01/17 03:23:48;;;;;;;9.10;0.90;;;;;;;;;;4950188;28;96055;-68
2023/01/17 03:26:15;;;;;;;6.07;1.23;;;;;;;;;;4953587;28;92507;-68
2023/01/17 03:28:41;;;;;;;7.07;0.80;;;;;;;;;;4951202;28;93923;-68
2023/01/17 03:31:07;;;;;;;8.88;1.27;;;;;;;;;;4937296;28;93729;-68
2023/01/17 03:33:33;;;;;;;10.98;0.75;;;;;;;;;;4938159;28;92432;-68
2023/01/17 03:36:00;;;;;;;4.28;1.02;;;;;;;;;;4942642;28;93467;-68
2023/01/17 03:38:27;;;;;;;7.75;1.08;;;;;;;;;;4944272;28;92462;-68
2023/01/17 03:40:53;;;;;;;7.30;0.75;;;;;;;;;;4943236;28;93061;-68
2023/01/17 03:43:20;;;;;;;3.42;0.75;;;;;;;;;;4936492;28;93570;-68
2023/01/17 03:45:50;;;;;;;6.35;1.35;;;;;;;;;;4941188;28;92405;-68
2023/01/17 03:48:17;;;;;;;5.80;1.33;;;;;;;;;;4941622;28;95123;-68
2023/01/17 03:50:43;;;;;;;8.38;1.45;;;;;;;;;;4939848;28;93601;-68
2023/01/17 03:53:10;;;;;;;9.05;1.40;;;;;;;;;;4952515;28;92599;-69
2023/01/17 03:55:36;;;;;;;7.88;1.40;;;;;;;;;;4948211;28;93126;-68
2023/01/17 03:58:02;;;;;;;4.93;1.10;;;;;;;;;;4947617;28;93507;-68
2023/01/17 04:00:28;;;;;;;12.77;1.40;;;;;;;;;;4955891;28;93627;-68
2023/01/17 04:02:55;;;;;;;10.10;1.20;;;;;;;;;;4941051;28;93756;-68
2023/01/17 04:05:21;;;;;;;6.95;0.98;;;;;;;;;;4943976;28;92045;-68
2023/01/17 04:07:47;;;;;;;3.75;0.80;;;;;;;;;;4954437;28;92415;-68
2023/01/17 04:10:14;;;;;;;8.13;0.73;;;;;;;;;;4956515;28;93410;-69
2023/01/17 04:12:40;;;;;;;6.53;1.02;;;;;;;;;;4949768;28;94999;-69
2023/01/17 04:15:06;;;;;;;4.57;0.75;;;;;;;;;;4955366;28;95573;-68
2023/01/17 04:17:33;;;;;;;8.50;1.70;;;;;;;;;;4936018;28;93561;-68
2023/01/17 04:19:59;;;;;;;6.38;0.85;;;;;;;;;;4949986;28;92535;-68
2023/01/17 04:22:25;;;;;;;5.75;0.90;;;;;;;;;;4939395;28;93442;-68
2023/01/17 04:24:52;;;;;;;12.88;1.30;;;;;;;;;;4945920;28;92522;-68
2023/01/17 04:27:18;;;;;;;7.03;1.17;;;;;;;;;;4944523;28;93178;-68
2023/01/17 04:29:44;;;;;;;5.57;0.85;;;;;;;;;;4951007;28;93732;-68
2023/01/17 04:32:12;;;;;;;10.82;0.98;;;;;;;;;;4956720;28;92454;-69
2023/01/17 04:34:38;;;;;;;4.82;0.70;;;;;;;;;;4937618;28;93152;-68
2023/01/17 04:37:04;;;;;;;2.10;0.80;;;;;;;;;;4949603;28;95936;-68
2023/01/17 04:39:31;;;;;;;8.65;1.20;;;;;;;;;;4946080;28;92470;-68
2023/01/17 04:41:57;;;;;;;4.43;0.80;;;;;;;;;;4947146;28;93156;-68
2023/01/17 04:44:23;;;;;;;4.68;1.00;;;;;;;;;;4944082;28;93906;-68
2023/01/17 04:46:49;;;;;;;9.82;1.20;;;;;;;;;;4935403;28;95052;-68
2023/01/17 04:49:16;;;;;;;5.95;1.23;;;;;;;;;;4930368;28;94553;-69
2023/01/17 04:51:42;;;;;;;5.38;0.70;;;;;;;;;;4937796;28;92443;-69
2023/01/17 04:54:08;;;;;;;4.95;0.75;;;;;;;;;;4933740;28;93527;-68
2023/01/17 04:56:34;;;;;;;6.50;1.05;;;;;;;;;;4916555;28;93839;-68
2023/01/17 04:59:01;;;;;;;5.68;0.77;;;;;;;;;;4918013;28;92414;-68
2023/01/17 05:01:27;;;;;;;3.35;0.73;;;;;;;;;;4916721;28;94851;-68
2023/01/17 05:03:53;;;;;;;1.85;0.63;;;;;;;;;;4930809;28;93380;-68
2023/01/17 05:06:20;;;;;;;7.93;1.20;;;;;;;;;;4939863;28;93006;-68
2023/01/17 05:08:46;;;;;;;7.63;0.90;;;;;;;;;;4951961;28;93501;-68
2023/01/17 05:11:13;;;;;;;10.18;1.40;;;;;;;;;;4937562;28;92533;-68
2023/01/17 05:13:39;;;;;;;4.72;0.90;;;;;;;;;;4937453;28;93225;-69
2023/01/17 05:16:05;;;;;;;6.72;1.00;;;;;;;;;;4935580;28;93762;-68
2023/01/17 05:18:31;;;;;;;4.05;0.85;;;;;;;;;;4940952;28;91741;-68
2023/01/17 05:21:01;;;;;;;7.05;1.40;;;;;;;;;;4954372;28;92467;-68
2023/01/17 05:23:28;;;;;;;7.30;1.40;;;;;;;;;;4955616;28;93649;-68
2023/01/17 05:25:54;;;;;;;5.88;1.55;;;;;;;;;;4941352;28;94971;-69
2023/01/17 05:28:20;;;;;;;6.28;1.27;;;;;;;;;;4937230;28;93437;-68
2023/01/17 05:30:47;;;;;;;6.13;1.30;;;;;;;;;;4945782;28;92556;-68
2023/01/17 05:33:13;;;;;;;5.05;1.27;;;;;;;;;;4947584;28;93349;-68
2023/01/17 05:35:39;;;;;;;4.35;0.80;;;;;;;;;;4945062;28;93386;-68
2023/01/17 05:38:05;;;;;;;7.57;1.38;;;;;;;;;;4955570;28;94574;-68
2023/01/17 05:40:32;;;;;;;5.35;1.05;;;;;;;;;;4952182;28;93220;-68
2023/01/17 05:42:59;;;;;;;8.35;1.60;;;;;;;;;;4956836;28;93155;-68
2023/01/17 05:45:26;;;;;;;8.48;1.42;;;;;;;;;;4950526;28;93689;-68
2023/01/17 05:47:53;;;;;;;5.15;1.00;;;;;;;;;;4953388;28;94188;-67
2023/01/17 05:50:21;;;;;;;6.05;1.20;;;;;;;;;;4940850;28;95143;-67
2023/01/17 05:52:52;;;;;;;7.85;2.03;;;;;;;;;;4951205;28;95466;-68
2023/01/17 05:55:19;;;;;;;11.02;2.00;;;;;;;;;;4945543;28;93375;-68
2023/01/17 05:57:45;;;;;;;11.93;2.25;;;;;;;;;;4953635;28;92801;-68
2023/01/17 06:00:12;;;;;;;9.43;1.92;;;;;;;;;;4953336;28;93155;-68
2023/01/17 06:02:38;;;;;;;8.27;2.30;;;;;;;;;;4951356;28;93463;-68
2023/01/17 06:05:05;;;;;;;8.93;2.72;;;;;;;;;;4952054;28;92601;-67
2023/01/17 06:07:32;;;;;;;6.65;2.05;;;;;;;;;;4955184;28;93126;-68
2023/01/17 06:09:58;;;;;;;5.18;2.47;;;;;;;;;;4946274;28;93303;-68
2023/01/17 06:12:24;;;;;;;24.40;3.40;;;;;;;;;;4944829;28;93146;-68
2023/01/17 06:14:51;;;;;;;12.52;2.78;;;;;;;;;;4945380;28;96175;-68
2023/01/17 06:17:17;;;;;;;10.80;2.58;;;;;;;;;;4953930;28;92376;-67
2023/01/17 06:19:44;;;;;;;10.65;2.42;;;;;;;;;;4955003;28;93286;-68
2023/01/17 06:22:10;;;;;;;12.35;2.35;;;;;;;;;;4948250;28;93615;-68
2023/01/17 06:24:36;;;;;;;9.70;3.15;;;;;;;;;;4954408;28;92776;-68
2023/01/17 06:27:03;;;;;;;4.85;2.15;;;;;;;;;;4951139;28;93131;-68
2023/01/17 06:29:29;;;;;;;17.13;4.97;;;;;;;;;;4933100;28;94146;-68
2023/01/17 06:31:55;;;;;;;14.25;4.15;;;;;;;;;;4939501;28;91742;-68
2023/01/17 06:34:22;;;;;;;5.93;2.88;;;;;;;;;;4941106;28;93389;-68
2023/01/17 06:36:48;;;;;;;9.68;2.75;;;;;;;;;;4954906;28;92488;-69
2023/01/17 06:39:14;;;;;;;6.32;2.75;;;;;;;;;;4952221;28;94844;-68
2023/01/17 06:41:41;;;;;;;6.80;3.72;;;;;;;;;;4943033;28;93476;-68
2023/01/17 06:44:08;;;;;;;6.35;2.85;;;;;;;;;;4940403;28;92544;-68
2023/01/17 06:46:34;;;;;;;10.85;3.05;;;;;;;;;;4937644;28;92576;-68
2023/01/17 06:49:01;;;;;;;7.68;2.97;;;;;;;;;;4941813;28;93764;-68
2023/01/17 06:51:27;;;;;;;14.27;2.95;;;;;;;;;;4937097;28;92483;-68
2023/01/17 06:53:53;;;;;;;8.43;3.50;;;;;;;;;;4940980;28;93172;-68
2023/01/17 06:56:20;;;;;;;10.73;3.20;;;;;;;;;;4920006;28;91850;-68
2023/01/17 06:58:49;;;;;;;14.18;3.45;;;;;;;;;;4917964;28;92566;-68
2023/01/17 07:01:16;;;;;;;8.73;3.80;;;;;;;;;;4918036;28;93972;-68
2023/01/17 07:03:43;;;;;;;10.40;3.22;;;;;;;;;;4934421;28;94833;-68
2023/01/17 07:06:09;;;;;;;16.00;3.85;;;;;;;;;;4936231;28;96030;-68
2023/01/17 07:08:36;;;;;;;16.98;4.30;;;;;;;;;;4920953;28;93429;-67
2023/01/17 07:11:03;;;;;;;21.73;4.85;;;;;;;;;;4918698;28;92697;-67
2023/01/17 07:13:32;;;;;;;13.00;6.00;;;;;;;;;;4918948;28;93289;-68
2023/01/17 07:16:02;;;;;;;11.88;4.10;;;;;;;;;;4929810;28;93827;-68
2023/01/17 07:18:29;;;;;;;11.95;3.83;;;;;;;;;;4938867;28;93214;-67
2023/01/17 07:20:55;;;;;;;13.98;4.40;;;;;;;;;;4943106;28;93016;-68
2023/01/17 07:23:22;;;;;;;11.05;3.67;;;;;;;;;;4959027;28;92654;-69
2023/01/17 07:25:52;;;;;;;15.10;3.85;;;;;;;;;;4943223;28;93605;-68
2023/01/17 07:28:19;;;;;;;15.07;3.88;;;;;;;;;;4948524;28;94838;-69
2023/01/17 07:30:45;;;;;;;10.90;3.58;;;;;;;;;;4970576;28;92409;-69
2023/01/17 07:33:11;;;;;;;9.73;4.22;;;;;;;;;;4950526;28;92327;-69
2023/01/17 07:35:38;;;;;;;17.10;4.10;;;;;;;;;;4971785;28;92493;-69
2023/01/17 07:38:04;;;;;;;11.52;4.65;;;;;;;;;;4948809;28;92419;-69
2023/01/17 07:40:31;;;;;;;15.68;4.40;;;;;;;;;;4947312;28;93771;-68
2023/01/17 07:43:13;;;;;;;18.48;4.80;;;;;;;;;;4946221;28;92486;-68
2023/01/17 07:45:43;;;;;;;21.85;5.78;;;;;;;;;;4946844;28;91889;-68
2023/01/17 07:48:10;;;;;;;20.67;5.10;;;;;;;;;;4934857;28;93917;-68
2023/01/17 07:50:36;;;;;;;26.33;6.88;;;;;;;;;;4942370;28;92380;-68
2023/01/17 07:53:03;;;;;;;13.52;4.30;;;;;;;;;;4940266;28;94756;-68
2023/01/17 07:55:29;;;;;;;23.00;5.28;;;;;;;;;;4940043;28;94677;-68
2023/01/17 07:57:56;;;;;;;22.90;4.68;;;;;;;;;;4924227;28;92449;-68
2023/01/17 08:00:24;;;;;;;9.80;4.53;;;;;;;;;;4919251;28;93485;-68
2023/01/17 08:02:54;;;;;;;17.40;4.40;;;;;;;;;;4919424;28;92449;-68
2023/01/17 08:05:20;;;;;;;9.82;2.55;;;;;;;;;;4944376;28;93501;-68
2023/01/17 08:07:46;;;;;;;12.13;3.30;;;;;;;;;;4919284;28;93468;-68
2023/01/17 08:10:16;;;;;;;7.75;2.70;;;;;;;;;;4938582;28;91806;-68
2023/01/17 08:12:46;;;;;;;8.73;2.15;;;;;;;;;;4938644;28;92754;-68
2023/01/17 08:15:16;;;;;;;18.90;3.00;;;;;;;;;;4950569;28;93559;-68
2023/01/17 08:17:47;;;;;;;24.23;3.33;;;;;;;;;;4955365;28;94847;-68
2023/01/17 08:20:13;;;;;;;12.27;2.70;;;;;;;;;;4960314;28;95655;-68
2023/01/17 08:22:40;;;;;;;12.32;2.30;;;;;;;;;;4938103;28;92446;-68
2023/01/17 08:25:06;;;;;;;9.52;2.25;;;;;;;;;;4937378;28;93252;-68
2023/01/17 08:27:33;;;;;;;13.88;2.83;;;;;;;;;;4937916;28;93560;-68
2023/01/17 08:30:01;;;;;;;13.82;2.35;;;;;;;;;;4937463;28;92453;-68
2023/01/17 08:32:27;;;;;;;10.38;2.53;;;;;;;;;;4930451;28;93553;-68
2023/01/17 08:34:55;;;;;;;9.00;2.22;;;;;;;;;;4924924;28;93732;-68
2023/01/17 08:37:21;;;;;;;17.50;2.45;;;;;;;;;;4931247;28;92624;-68
2023/01/17 08:39:48;;;;;;;10.23;2.50;;;;;;;;;;4936389;28;93084;-68
2023/01/17 08:42:14;;;;;;;10.35;2.13;;;;;;;;;;4936997;28;98610;-69
2023/01/17 08:44:42;;;;;;;13.57;2.45;;;;;;;;;;4937354;28;95552;-69
2023/01/17 08:47:08;;;;;;;10.15;2.20;;;;;;;;;;4923449;28;93637;-69
2023/01/17 08:49:35;;;;;;;11.48;2.28;;;;;;;;;;4929400;28;94651;-69
2023/01/17 08:52:01;;;;;;;10.18;1.88;;;;;;;;;;4932414;28;94014;-69
2023/01/17 08:54:27;;;;;;;11.30;2.08;;;;;;;;;;4937530;28;93212;-69
2023/01/17 08:56:54;;;;;;;7.13;2.05;;;;;;;;;;4936267;28;92416;-69
2023/01/17 08:59:21;;;;;;;21.77;2.15;;;;;;;;;;4938187;28;93150;-68
2023/01/17 09:01:47;;;;;;;13.98;2.30;;;;;;;;;;4954054;28;93678;-69
2023/01/17 09:04:14;;;;;;;7.40;1.90;;;;;;;;;;4959994;28;92392;-71
2023/01/17 09:06:41;;;;;;;13.65;2.72;;;;;;;;;;4954800;28;96094;-69
2023/01/17 09:09:10;;;;;;;6.07;2.72;;;;;;;;;;4956113;28;92448;-69
2023/01/17 09:11:36;;;;;;;13.02;3.47;;;;;;;;;;4956209;28;93533;-69
2023/01/17 09:14:03;;;;;;;9.18;2.97;;;;;;;;;;4957050;28;93947;-69
2023/01/17 09:16:29;;;;;;;17.85;3.28;;;;;;;;;;4944433;28;92467;-68
2023/01/17 09:18:56;;;;;;;12.45;2.42;;;;;;;;;;4955413;28;93262;-69
2023/01/17 09:21:23;;;;;;;9.85;2.97;;;;;;;;;;4954178;28;96297;-67
2023/01/17 09:23:50;;;;;;;9.57;2.60;;;;;;;;;;4953019;28;91890;-67
2023/01/17 09:26:19;;;;;;;15.98;2.88;;;;;;;;;;4936196;28;92571;-68
2023/01/17 09:28:45;;;;;;;9.32;3.42;;;;;;;;;;4937103;28;92425;-67
2023/01/17 09:31:11;;;;;;;11.88;3.28;;;;;;;;;;4940810;28;94887;-67
2023/01/17 09:33:41;;;;;;;18.70;3.45;;;;;;;;;;4956234;28;93932;-66
2023/01/17 09:36:08;;;;;;;9.63;2.80;;;;;;;;;;4953256;28;94030;-67
2023/01/17 09:38:35;;;;;;;13.90;3.45;;;;;;;;;;4955750;28;92421;-67
2023/01/17 09:41:01;;;;;;;9.68;3.72;;;;;;;;;;4955039;28;94010;-67
2023/01/17 09:43:40;;;;;;;15.85;3.63;;;;;;;;;;4953503;28;92526;-67
2023/01/17 09:46:12;;;;;;;10.73;3.28;;;;;;;;;;4939337;28;93171;-67
2023/01/17 09:48:39;;;;;;;11.55;3.63;;;;;;;;;;4937033;28;91759;-67
2023/01/17 09:51:13;;;;;;;17.92;3.97;;;;;;;;;;4936630;28;92632;-67
2023/01/17 09:53:40;;;;;;;8.80;3.28;;;;;;;;;;4936777;28;93978;-67
2023/01/17 09:56:10;;;;;;;9.13;3.33;;;;;;;;;;4926598;28;94901;-66
2023/01/17 09:58:45;;;;;;;9.60;3.80;;;;;;;;;;4933154;28;96819;-67
2023/01/17 10:01:28;;;;;;;11.90;4.72;;;;;;;;;;4949267;28;93557;-67
2023/01/17 10:04:03;;;;;;;15.77;4.72;;;;;;;;;;4944284;28;92449;-67
2023/01/17 10:06:30;;;;;;;16.20;4.97;;;;;;;;;;4925305;28;93159;-67
2023/01/17 10:09:06;;;;;;;16.30;5.43;;;;;;;;;;4943278;28;93444;-67
2023/01/17 10:11:45;;;;;;;13.13;4.40;;;;;;;;;;4952289;28;93260;-67
2023/01/17 10:14:30;;;;;;;12.60;4.90;;;;;;;;;;4946509;28;92794;-67
2023/01/17 10:17:05;;;;;;;12.77;4.85;;;;;;;;;;4950215;28;92468;-67
2023/01/17 10:19:46;;;;;;;15.38;5.75;;;;;;;;;;4951095;28;92732;-67
2023/01/17 10:22:38;;;;;;;15.88;5.40;;;;;;;;;;4954071;28;96834;-67
2023/01/17 10:25:19;;;;;;;10.52;4.72;;;;;;;;;;4953304;28;92540;-69
2023/01/17 10:28:12;;;;;;;11.45;4.88;;;;;;;;;;4934152;28;95725;-67
2023/01/17 10:30:43;;;;;;;12.77;5.22;;;;;;;;;;4936985;28;93820;-67
2023/01/17 10:33:16;;;;;;;10.32;4.20;;;;;;;;;;4954621;28;92512;-67
2023/01/17 10:35:51;;;;;;;12.10;4.60;;;;;;;;;;4953850;28;93741;-67
2023/01/17 10:38:19;;;;;;;10.07;4.90;;;;;;;;;;4939786;28;92538;-67
2023/01/17 10:40:53;;;;;;;10.65;4.68;;;;;;;;;;4940979;28;93489;-67
2023/01/17 10:43:43;;;;;;;8.27;4.32;;;;;;;;;;4941941;28;93620;-67
2023/01/17 10:46:20;;;;;;;9.05;4.22;;;;;;;;;;4940071;28;93637;-67
2023/01/17 10:48:49;;;;;;;10.95;4.70;;;;;;;;;;4934441;28;94786;-67
2023/01/17 10:51:18;;;;;;;11.27;4.85;;;;;;;;;;4941985;28;92468;-67
2023/01/17 10:53:48;;;;;;;9.05;4.50;;;;;;;;;;4938951;28;95086;-68
2023/01/17 10:56:16;;;;;;;9.10;4.17;;;;;;;;;;4933529;28;94190;-66
2023/01/17 10:58:42;;;;;;;8.82;5.20;;;;;;;;;;4936191;28;92773;-67
2023/01/17 11:01:15;;;;;;;10.15;4.95;;;;;;;;;;4936084;28;93228;-67
2023/01/17 11:03:43;;;;;;;18.80;5.55;;;;;;;;;;4932894;28;93456;-67
2023/01/17 11:06:15;;;;;;;13.85;4.63;;;;;;;;;;4933283;28;91760;-67
2023/01/17 11:08:52;;;;;;;12.80;4.20;;;;;;;;;;4933149;28;94638;-67
2023/01/17 11:11:19;;;;;;;11.70;4.47;;;;;;;;;;4955310;28;93442;-67
2023/01/17 11:13:47;;;;;;;10.55;4.07;;;;;;;;;;4937998;28;96736;-67
2023/01/17 11:16:21;;;;;;;13.20;4.18;;;;;;;;;;4932831;28;97004;-67
2023/01/17 11:19:04;;;;;;;11.85;4.75;;;;;;;;;;4937631;28;92540;-67
2023/01/17 11:21:30;;;;;;;10.45;4.65;;;;;;;;;;4942194;28;93407;-67
2023/01/17 11:24:07;;;;;;;25.98;4.50;;;;;;;;;;4934434;28;93521;-68
2023/01/17 11:26:34;;;;;;;8.15;3.70;;;;;;;;;;4936365;28;92617;-67
2023/01/17 11:29:21;;;;;;;7.05;3.45;;;;;;;;;;4928041;28;93294;-67
2023/01/17 11:31:47;;;;;;;10.38;4.57;;;;;;;;;;4920974;28;93290;-66
2023/01/17 11:34:16;;;;;;;8.75;4.13;;;;;;;;;;4935829;28;93042;-67
2023/01/17 11:36:42;;;;;;;7.85;4.03;;;;;;;;;;4930440;28;93102;-67
2023/01/17 11:39:29;;;;;;;7.65;3.50;;;;;;;;;;4937199;28;96110;-67
2023/01/17 11:41:55;;;;;;;11.45;3.65;;;;;;;;;;4936337;28;92588;-67
2023/01/17 11:44:29;;;;;;;7.40;4.32;;;;;;;;;;4938221;28;93815;-67
2023/01/17 11:47:10;;;;;;;13.95;3.72;;;;;;;;;;4927984;28;92595;-67
2023/01/17 11:49:37;;;;;;;10.45;4.80;;;;;;;;;;4948262;28;93226;-67
2023/01/17 11:52:15;;;;;;;14.45;5.10;;;;;;;;;;4934557;28;92386;-67
2023/01/17 11:54:43;;;;;;;9.10;4.13;;;;;;;;;;4949027;28;92604;-67
2023/01/17 11:57:33;;;;;;;11.30;4.85;;;;;;;;;;4934683;28;93449;-67
2023/01/17 12:00:14;;;;;;;9.27;3.53;;;;;;;;;;4929586;28;95237;-68
2023/01/17 12:02:59;;;;;;;6.18;3.33;;;;;;;;;;4936826;28;92694;-67
2023/01/17 12:05:37;;;;;;;5.57;2.88;;;;;;;;;;4928058;28;96997;-67
2023/01/17 12:08:03;;;;;;;5.80;3.53;;;;;;;;;;4934454;28;92491;-68
2023/01/17 12:10:33;;;;;;;5.75;3.30;;;;;;;;;;4933912;28;93254;-68
2023/01/17 12:15:53;;;;;;;7.93;2.88;;;;;;;;;;4934079;28;92802;-68
2023/01/17 12:18:35;;;;;;;7.28;3.30;;;;;;;;;;4943495;28;93588;-67
2023/01/17 12:21:11;;;;;;;6.68;2.50;;;;;;;;;;4914755;28;92411;-68
2023/01/17 12:23:40;;;;;;;4.97;2.55;;;;;;;;;;4936590;28;93643;-67
2023/01/17 12:26:25;;;;;;;3.60;2.33;;;;;;;;;;4948918;28;93662;-67
2023/01/17 12:28:51;;;;;;;5.43;2.60;;;;;;;;;;4937988;28;92451;-68
2023/01/17 12:31:17;;;;;;;4.45;2.33;;;;;;;;;;4955359;28;94807;-68
2023/01/17 12:33:44;;;;;;;4.50;2.00;;;;;;;;;;4956762;28;93446;-68
2023/01/17 12:36:29;;;;;;;5.85;2.67;;;;;;;;;;4944378;28;93719;-68
2023/01/17 12:38:57;;;;;;;4.95;1.90;;;;;;;;;;4942171;28;93198;-68
2023/01/17 12:41:27;;;;;;;3.45;1.98;;;;;;;;;;4956615;28;93616;-68
2023/01/17 12:43:58;;;;;;;4.25;1.80;;;;;;;;;;4951053;28;92559;-68
2023/01/17 12:46:41;;;;;;;4.80;2.13;;;;;;;;;;4936238;28;93145;-68
2023/01/17 12:49:37;;;;;;;2.85;1.83;;;;;;;;;;4938386;28;93070;-68
2023/01/17 12:52:18;;;;;;;6.95;2.10;;;;;;;;;;4927393;28;93428;-68
2023/01/17 12:54:46;;;;;;;4.50;2.25;;;;;;;;;;4933196;28;96360;-68
2023/01/17 12:57:13;;;;;;;3.75;2.60;;;;;;;;;;4933616;28;94925;-68
2023/01/17 12:59:57;;;;;;;3.05;1.90;;;;;;;;;;4937254;28;95851;-68
2023/01/17 13:02:42;;;;;;;3.80;2.05;;;;;;;;;;4935397;28;93658;-68
2023/01/17 13:05:17;;;;;;;4.32;2.50;;;;;;;;;;4954863;28;92510;-68
2023/01/17 13:07:48;;;;;;;9.80;2.20;;;;;;;;;;4937262;28;93119;-68
2023/01/17 13:10:21;;;;;;;10.65;2.55;;;;;;;;;;4917878;28;93898;-68
2023/01/17 13:12:48;;;;;;;6.18;2.58;;;;;;;;;;4931118;28;92455;-68
2023/01/17 13:15:16;;;;;;;3.17;2.10;;;;;;;;;;4947066;28;95736;-68
2023/01/17 13:17:47;;;;;;;2.30;2.10;;;;;;;;;;4945968;28;93374;-68
2023/01/17 13:20:18;;;;;;;7.20;2.75;;;;;;;;;;4956366;28;93591;-68
2023/01/17 13:22:44;;;;;;;5.55;2.08;;;;;;;;;;4938054;28;95800;-68
2023/01/17 13:25:11;;;;;;;5.25;2.20;;;;;;;;;;4948303;28;92434;-68
2023/01/17 13:27:45;;;;;;;4.20;2.15;;;;;;;;;;4945212;28;93116;-68
2023/01/17 13:30:14;;;;;;;10.52;2.55;;;;;;;;;;4931326;28;92682;-68
2023/01/17 13:32:53;;;;;;;2.50;2.03;;;;;;;;;;4936820;28;92666;-68
2023/01/17 13:35:25;;;;;;;8.18;2.42;;;;;;;;;;4938267;28;94213;-68
2023/01/17 13:38:06;;;;;;;5.47;1.85;;;;;;;;;;4952243;28;92458;-68
2023/01/17 13:40:53;;;;;;;5.25;2.00;;;;;;;;;;4955227;28;93416;-67
2023/01/17 13:43:24;;;;;;;6.60;2.10;;;;;;;;;;4935363;28;93390;-68
2023/01/17 13:45:52;;;;;;;2.83;2.00;;;;;;;;;;4934733;28;92465;-67
2023/01/17 13:48:18;;;;;;;4.47;2.15;;;;;;;;;;4933202;28;94799;-68
2023/01/17 13:50:49;;;;;;;3.60;2.30;;;;;;;;;;4936677;28;93500;-68
2023/01/17 13:53:15;;;;;;;;;;;;;;;;;;4945034;28;92493;-68
2023/01/17 13:55:45;;;;;;;2.72;2.10;;;;;;;;;;4938213;28;124226;-68
2023/01/17 13:58:30;;;;;;;3.88;2.10;;;;;;;;;;4946687;28;92539;-68
2023/01/17 14:00:56;;;;;;;9.30;1.92;;;;;;;;;;4951406;28;93236;-68
2023/01/17 14:04:01;;;;;;;6.88;2.28;;;;;;;;;;4944509;28;93405;-68
2023/01/17 14:06:45;;;;;;;2.22;1.85;;;;;;;;;;4936157;28;91851;-67
2023/01/17 14:09:11;;;;;;;2.80;1.70;;;;;;;;;;4931561;28;93190;-67
2023/01/17 14:11:52;;;;;;;3.70;1.98;;;;;;;;;;4935822;28;93534;-68
2023/01/17 14:14:36;;;;;;;1.52;1.40;;;;;;;;;;4947988;28;94868;-68
2023/01/17 14:17:15;;;;;;;5.93;1.90;;;;;;;;;;4944157;28;95679;-67
2023/01/17 14:19:42;;;;;;;3.13;2.10;;;;;;;;;;4956593;28;93630;-67
2023/01/17 14:22:19;;;;;;;8.00;2.72;;;;;;;;;;4954148;28;93121;-68
2023/01/17 14:25:08;;;;;;;7.35;2.10;;;;;;;;;;4953638;28;93454;-68
2023/01/17 14:27:43;;;;;;;5.75;1.67;;;;;;;;;;4938531;28;92632;-68
2023/01/17 14:30:16;;;;;;;5.70;2.40;;;;;;;;;;4940650;28;94223;-68
2023/01/17 14:32:57;;;;;;;5.18;2.10;;;;;;;;;;4932555;28;93535;-68
2023/01/17 14:35:26;;;;;;;2.45;1.80;;;;;;;;;;4916636;28;92440;-68
2023/01/17 14:37:53;;;;;;;4.20;2.00;;;;;;;;;;4936794;28;93236;-67
2023/01/17 14:40:20;;;;;;;2.55;1.63;;;;;;;;;;4952388;28;96249;-67
2023/01/17 14:42:52;;;;;;;2.47;1.77;;;;;;;;;;4934322;28;93959;-67
2023/01/17 14:45:22;;;;;;;8.70;1.73;;;;;;;;;;4936142;28;93022;-67
2023/01/17 14:47:50;;;;;;;6.30;1.55;;;;;;;;;;4939420;28;92595;-68
2023/01/17 14:50:16;;;;;;;9.65;2.25;;;;;;;;;;4932181;28;93420;-67
2023/01/17 14:52:45;;;;;;;4.75;1.88;;;;;;;;;;4933714;28;95867;-68
2023/01/17 14:55:19;;;;;;;3.20;1.73;;;;;;;;;;4935165;28;92464;-67
2023/01/17 14:57:52;;;;;;;5.93;2.65;;;;;;;;;;4932396;28;93053;-67
2023/01/17 15:00:19;;;;;;;3.10;1.48;;;;;;;;;;4937602;28;93729;-67
2023/01/17 15:02:46;;;;;;;9.43;2.75;;;;;;;;;;4951696;28;92542;-67
2023/01/17 15:05:14;;;;;;;9.43;2.28;;;;;;;;;;4955717;28;95070;-67
2023/01/17 15:07:42;;;;;;;6.10;1.90;;;;;;;;;;4933886;28;92830;-68
2023/01/17 15:10:13;;;;;;;5.88;2.17;;;;;;;;;;4938389;28;93396;-68
2023/01/17 15:12:45;;;;;;;5.50;1.70;;;;;;;;;;4950304;28;93916;-67
2023/01/17 15:15:30;;;;;;;4.88;2.45;;;;;;;;;;4952297;28;92435;-68
2023/01/17 15:18:06;;;;;;;6.50;2.45;;;;;;;;;;4950810;28;94149;-68
2023/01/17 15:20:33;;;;;;;6.05;2.50;;;;;;;;;;4952122;28;92470;-68
2023/01/17 15:22:59;;;;;;;9.05;3.85;;;;;;;;;;4934645;28;91803;-68
2023/01/17 15:25:26;;;;;;;9.90;3.72;;;;;;;;;;4934968;28;92441;-67
2023/01/17 15:27:52;;;;;;;11.00;3.95;;;;;;;;;;4953383;28;93476;-68
2023/01/17 15:30:21;;;;;;;12.48;4.85;;;;;;;;;;4950979;28;94948;-68
2023/01/17 15:32:48;;;;;;;5.15;3.30;;;;;;;;;;4915374;28;93613;-68
2023/01/17 15:35:16;;;;;;;6.00;3.22;;;;;;;;;;4934416;28;92540;-68
2023/01/17 15:37:42;;;;;;;7.28;3.53;;;;;;;;;;4938911;28;93105;-68
2023/01/17 15:40:18;;;;;;;9.63;3.80;;;;;;;;;;4934254;28;93399;-67
2023/01/17 15:42:46;;;;;;;9.68;3.60;;;;;;;;;;4952422;28;92922;-68
2023/01/17 15:45:18;;;;;;;14.02;4.40;;;;;;;;;;4950930;28;93134;-67
2023/01/17 15:47:45;;;;;;;6.45;3.20;;;;;;;;;;4941639;28;92951;-68
2023/01/17 15:50:27;;;;;;;8.82;3.63;;;;;;;;;;4948249;28;92507;-66
2023/01/17 15:52:55;;;;;;;6.53;3.28;;;;;;;;;;4930139;28;93673;-67
2023/01/17 15:55:29;;;;;;;6.85;3.33;;;;;;;;;;4929038;28;94965;-66
2023/01/17 15:57:55;;;;;;;5.43;4.03;;;;;;;;;;4932850;28;95679;-67
2023/01/17 16:00:25;;;;;;;3.20;2.40;;;;;;;;;;4932659;28;93787;-70
2023/01/17 16:02:57;;;;;;;7.60;2.20;;;;;;;;;;4922012;28;92730;-69
2023/01/17 16:05:24;;;;;;;5.63;4.00;;;;;;;;;;4938278;28;93307;-66
2023/01/17 16:08:14;;;;;;;12.60;4.38;;;;;;;;;;4953908;28;94385;-67
2023/01/17 16:10:41;;;;;;;18.30;10.90;;;;;;;;;;4950684;28;94388;-66
2023/01/17 16:13:09;;;;;;;13.52;4.32;;;;;;;;;;4937414;28;92691;-67
2023/01/17 16:15:36;;;;;;;7.75;3.20;;;;;;;;;;4937551;28;92564;-69
2023/01/17 16:18:05;;;;;;;8.65;3.65;;;;;;;;;;4937499;28;93356;-66
2023/01/17 16:20:33;;;;;;;7.40;4.82;;;;;;;;;;4939668;28;95744;-66